Time;durP1;ratioP1;P1;durP2;ratioP2;P2;SDS_P1;SDS_P2;PMS_P1;PMS_P2;Temp;Humidity;BMP_temperature;BMP_pressure;BME280_temperature;BME280_humidity;BME280_pressure;Samples;Min_cycle;Max_cycle;Signal;HPM_P1;HPM_P2
2022/09/28 00:01:53;;;;;;;5.88;1.33;;;;;;;7.83;100.00;97467.81;5063992;28;20028;-80
2022/09/28 00:04:19;;;;;;;2.78;1.38;;;;;;;7.71;100.00;97462.50;5062663;28;20086;-80
2022/09/28 00:06:46;;;;;;;3.28;1.40;;;;;;;7.70;100.00;97465.34;5062425;28;20028;-81
2022/09/28 00:09:12;;;;;;;4.25;1.35;;;;;;;7.77;100.00;97457.44;5062270;28;20498;-82
2022/09/28 00:11:39;;;;;;;2.33;1.30;;;;;;;7.76;100.00;97451.41;5062132;28;20107;-81
2022/09/28 00:14:06;;;;;;;5.70;1.40;;;;;;;7.82;100.00;97450.53;5066014;28;20049;-81
2022/09/28 00:16:43;;;;;;;5.60;1.40;;;;;;;7.86;100.00;97456.97;5062839;28;20389;-81
2022/09/28 00:19:12;;;;;;;4.75;1.42;;;;;;;7.96;100.00;97455.66;5061517;28;20118;-80
2022/09/28 00:21:39;;;;;;;3.53;1.25;;;;;;;7.88;100.00;97458.56;5064825;28;20497;-81
2022/09/28 00:24:13;;;;;;;4.53;1.85;;;;;;;7.91;100.00;97463.34;5062320;28;20033;-80
2022/09/28 00:26:49;;;;;;;1.67;1.10;;;;;;;7.90;100.00;97464.34;5057844;28;20043;-81
2022/09/28 00:29:27;;;;;;;5.20;1.50;;;;;;;7.82;100.00;97450.53;5060495;28;20506;-82
2022/09/28 00:32:00;;;;;;;6.65;1.33;;;;;;;7.81;100.00;97459.41;5062009;28;20075;-82
2022/09/28 00:34:27;;;;;;;2.65;1.30;;;;;;;7.92;100.00;97470.16;5061545;28;20037;-80
2022/09/28 00:36:52;;;;;;;2.83;1.10;;;;;;;7.89;100.00;97466.16;5062651;28;20112;-80
2022/09/28 00:39:40;;;;;;;3.22;1.40;;;;;;;7.93;100.00;97461.31;5057289;28;20097;-81
2022/09/28 00:42:21;;;;;;;3.78;1.70;;;;;;;7.88;100.00;97469.00;5057519;28;20053;-82
2022/09/28 00:44:49;;;;;;;4.07;1.35;;;;;;;7.88;100.00;97461.94;5060472;28;20036;-82
2022/09/28 00:47:20;;;;;;;4.80;1.40;;;;;;;7.89;100.00;97471.38;5059733;28;20029;-82
2022/09/28 00:49:52;;;;;;;3.50;1.20;;;;;;;7.86;100.00;97472.63;5059824;28;20024;-80
2022/09/28 00:52:24;;;;;;;3.75;1.20;;;;;;;7.90;100.00;97457.31;5058966;28;20041;-82
2022/09/28 00:54:52;;;;;;;3.20;1.30;;;;;;;7.88;100.00;97461.16;5059633;28;20049;-81
2022/09/28 00:57:19;;;;;;;5.40;1.48;;;;;;;7.85;100.00;97460.56;5060911;28;20494;-80
2022/09/28 00:59:51;;;;;;;3.67;1.20;;;;;;;7.60;100.00;97444.13;5060555;28;20108;-81
2022/09/28 01:02:17;;;;;;;5.35;1.33;;;;;;;7.79;100.00;97469.25;5041148;28;20036;-81
2022/09/28 01:04:43;;;;;;;1.55;1.20;;;;;;;7.74;100.00;97463.09;5062479;28;20032;-82
2022/09/28 01:07:09;;;;;;;4.53;1.10;;;;;;;7.76;100.00;97456.63;5063315;28;20024;-81
2022/09/28 01:09:39;;;;;;;3.78;1.33;;;;;;;7.68;100.00;97455.09;5057008;28;20025;-81
2022/09/28 01:12:05;;;;;;;4.25;1.10;;;;;;;7.57;100.00;97448.75;5065501;28;20033;-81
2022/09/28 01:14:31;;;;;;;2.65;1.30;;;;;;;7.57;100.00;97448.75;5063319;28;20051;-81
2022/09/28 01:17:12;;;;;;;2.55;1.20;;;;;;;7.66;100.00;97461.53;5062201;28;20383;-82
2022/09/28 01:20:12;;;;;;;1.50;1.05;;;;;;;7.61;100.00;97464.81;5060525;28;20036;-81
2022/09/28 01:23:26;;;;;;;2.97;1.00;;;;;;;7.54;100.00;97454.41;5063111;28;20375;-82
2022/09/28 01:26:00;;;;;;;4.15;1.40;;;;;;;7.63;100.00;97443.69;5046295;28;20041;-81
2022/09/28 01:28:30;;;;;;;3.47;1.20;;;;;;;7.74;100.00;97445.63;5060099;28;20032;-80
2022/09/28 01:30:56;;;;;;;2.47;1.50;;;;;;;7.79;100.00;97440.53;5061697;28;20035;-81
2022/09/28 01:33:27;;;;;;;4.80;1.20;;;;;;;7.81;100.00;97443.72;5058387;28;20032;-81
2022/09/28 01:36:21;;;;;;;2.03;1.55;;;;;;;7.81;100.00;97441.13;5065817;28;20110;-81
2022/09/28 01:38:51;;;;;;;4.82;1.20;;;;;;;7.92;100.00;97444.03;5057368;28;20040;-81
2022/09/28 01:41:19;;;;;;;1.55;1.08;;;;;;;7.88;100.00;97441.06;5066195;28;20028;-79
2022/09/28 01:43:53;;;;;;;2.50;1.10;;;;;;;7.76;100.00;97443.59;5066171;28;20425;-80
2022/09/28 01:46:26;;;;;;;2.33;1.35;;;;;;;7.81;100.00;97438.50;5065393;28;20105;-82
2022/09/28 01:49:02;;;;;;;1.42;1.17;;;;;;;7.83;100.00;97436.47;5064746;28;20429;-81
2022/09/28 01:51:38;;;;;;;1.83;1.17;;;;;;;7.76;100.00;97438.34;5064884;28;20489;-80
2022/09/28 01:54:29;;;;;;;3.50;1.20;;;;;;;7.65;100.00;97436.44;5062116;28;20063;-82
2022/09/28 01:57:03;;;;;;;4.43;1.20;;;;;;;7.70;100.00;97453.06;5061390;28;20475;-81
2022/09/28 01:59:32;;;;;;;2.80;1.27;;;;;;;7.69;100.00;97435.81;5062062;28;20039;-81
2022/09/28 02:02:04;;;;;;;2.38;1.25;;;;;;;7.78;100.00;97441.56;5064481;28;20033;-80
2022/09/28 02:04:54;;;;;;;4.20;1.42;;;;;;;7.79;100.00;97429.31;5068046;28;20052;-82
2022/09/28 02:07:33;;;;;;;3.78;1.52;;;;;;;7.77;100.00;97432.13;5061630;28;20025;-80
2022/09/28 02:10:06;;;;;;;1.20;1.10;;;;;;;7.72;100.00;97429.38;5066655;28;20043;-80
2022/09/28 02:12:41;;;;;;;5.85;1.55;;;;;;;7.81;100.00;97432.50;5059604;28;20037;-81
2022/09/28 02:15:21;;;;;;;3.17;1.23;;;;;;;7.78;100.00;97438.94;5062588;28;20049;-81
2022/09/28 02:17:48;;;;;;;2.13;1.27;;;;;;;7.70;100.00;97436.63;5065108;28;20119;-80
2022/09/28 02:20:14;;;;;;;5.25;1.45;;;;;;;7.71;100.00;97438.22;5064197;28;20355;-80
2022/09/28 02:22:47;;;;;;;3.10;1.33;;;;;;;7.76;100.00;97434.94;5066967;28;20040;-81
2022/09/28 02:25:39;;;;;;;3.13;1.30;;;;;;;7.69;100.00;97435.81;5064074;28;20470;-81
2022/09/28 02:28:08;;;;;;;1.67;1.17;;;;;;;7.55;100.00;97432.53;5054163;28;20116;-81
2022/09/28 02:30:36;;;;;;;3.63;1.40;;;;;;;7.58;100.00;97428.69;5062788;28;20191;-81
2022/09/28 02:33:08;;;;;;;4.97;1.27;;;;;;;7.73;100.00;97441.41;5061474;28;20494;-80
2022/09/28 02:35:34;;;;;;;1.40;1.27;;;;;;;7.75;100.00;97433.34;5060875;28;20033;-80
2022/09/28 02:38:00;;;;;;;3.67;1.65;;;;;;;7.63;100.00;97435.84;5064037;28;20025;-81
2022/09/28 02:40:33;;;;;;;4.32;1.77;;;;;;;7.77;100.00;97434.72;5061730;28;20428;-81
2022/09/28 02:43:18;;;;;;;2.53;1.10;;;;;;;7.55;100.00;97436.94;5066285;28;20028;-81
2022/09/28 02:45:56;;;;;;;3.92;1.70;;;;;;;7.62;100.00;97440.31;5065029;28;20032;-81
2022/09/28 02:48:21;;;;;;;3.70;1.27;;;;;;;7.65;100.00;97439.88;5063997;28;20029;-80
2022/09/28 02:51:05;;;;;;;2.30;1.10;;;;;;;7.70;100.00;97441.84;5063436;28;20166;-80
2022/09/28 02:53:44;;;;;;;3.78;1.40;;;;;;;7.68;100.00;97439.44;5065852;28;20406;-79
2022/09/28 02:56:26;;;;;;;2.90;1.35;;;;;;;7.78;100.00;97438.94;5059543;28;20479;-81
2022/09/28 02:58:58;;;;;;;2.88;1.27;;;;;;;7.72;100.00;97431.97;5058348;28;20116;-82
2022/09/28 03:01:57;;;;;;;1.73;1.30;;;;;;;7.86;100.00;97441.28;5062412;28;20078;-80
2022/09/28 03:04:37;;;;;;;1.85;1.25;;;;;;;7.90;100.00;97435.63;5043419;28;20036;-80
2022/09/28 03:07:09;;;;;;;4.80;1.27;;;;;;;7.82;100.00;97429.66;5060968;28;20013;-80
2022/09/28 03:09:47;;;;;;;1.67;1.38;;;;;;;7.90;100.00;97441.63;5062094;28;20111;-80
2022/09/28 03:12:17;;;;;;;3.15;1.50;;;;;;;7.73;100.00;97425.72;5062945;28;20029;-80
2022/09/28 03:14:42;;;;;;;3.75;1.58;;;;;;;7.81;100.00;97442.94;5061056;28;20132;-81
2022/09/28 03:17:07;;;;;;;1.52;1.25;;;;;;;7.77;100.00;97436.56;5066349;28;20104;-81
2022/09/28 03:19:33;;;;;;;3.00;1.40;;;;;;;7.81;100.00;97443.72;5061966;28;20070;-81
2022/09/28 03:21:59;;;;;;;2.42;1.40;;;;;;;7.75;100.00;97434.16;5063185;28;20191;-81
2022/09/28 03:24:25;;;;;;;4.72;1.92;;;;;;;7.63;100.00;97426.22;5063603;28;20028;-81
2022/09/28 03:26:51;;;;;;;3.47;1.55;;;;;;;7.81;100.00;97438.50;5061601;28;20045;-81
2022/09/28 03:29:19;;;;;;;2.80;1.60;;;;;;;7.85;100.00;97444.88;5062818;28;20028;-81
2022/09/28 03:31:45;;;;;;;1.50;1.30;;;;;;;7.78;100.00;97452.00;5064087;28;20028;-81
2022/09/28 03:34:10;;;;;;;2.92;1.50;;;;;;;7.74;100.00;97429.94;5062418;28;20035;-81
2022/09/28 03:36:36;;;;;;;3.00;1.38;;;;;;;7.76;100.00;97440.97;5062860;28;20024;-80
2022/09/28 03:39:01;;;;;;;3.78;1.40;;;;;;;7.79;100.00;97456.19;5063065;28;20025;-81
2022/09/28 03:41:28;;;;;;;4.68;1.73;;;;;;;7.75;100.00;97439.38;5058898;28;20038;-81
2022/09/28 03:43:53;;;;;;;1.45;1.17;;;;;;;7.79;100.00;97458.03;5060144;28;20124;-80
2022/09/28 03:46:19;;;;;;;3.22;1.50;;;;;;;7.76;100.00;97451.41;5061839;28;20036;-81
2022/09/28 03:48:44;;;;;;;2.55;1.40;;;;;;;7.78;100.00;97459.06;5059729;28;20029;-81
2022/09/28 03:51:11;;;;;;;1.33;1.23;;;;;;;7.51;100.00;97417.50;5059000;28;20033;-80
2022/09/28 03:53:37;;;;;;;5.57;1.40;;;;;;;7.69;100.00;97455.91;5064306;28;20094;-81
2022/09/28 03:56:14;;;;;;;3.08;1.50;;;;;;;7.63;100.00;97465.41;5057972;28;20025;-80
2022/09/28 03:58:39;;;;;;;4.30;1.55;;;;;;;7.63;100.00;97456.75;5061451;28;20397;-80
2022/09/28 04:01:08;;;;;;;1.77;1.50;;;;;;;7.62;100.00;97469.03;5060555;28;20036;-81
2022/09/28 04:03:34;;;;;;;2.10;1.55;;;;;;;7.57;100.00;97459.22;5065831;28;20032;-81
2022/09/28 04:06:03;;;;;;;3.05;1.70;;;;;;;7.61;100.00;97461.38;5061247;28;20041;-81
2022/09/28 04:08:28;;;;;;;1.17;1.02;;;;;;;7.67;100.00;97478.84;5042192;28;20120;-82
2022/09/28 04:10:58;;;;;;;4.90;1.35;;;;;;;7.53;100.00;97457.22;5060965;28;20067;-81
2022/09/28 04:13:26;;;;;;;1.55;1.40;;;;;;;7.52;100.00;97472.13;5060563;28;20032;-82
2022/09/28 04:15:54;;;;;;;5.15;1.60;;;;;;;7.45;100.00;97471.34;5060751;28;20071;-82
2022/09/28 04:18:21;;;;;;;2.35;1.42;;;;;;;7.53;100.00;97470.28;5062167;28;20363;-81
2022/09/28 04:20:47;;;;;;;3.17;1.27;;;;;;;7.45;100.00;97471.34;5060785;28;20116;-81
2022/09/28 04:23:14;;;;;;;3.45;1.65;;;;;;;7.29;100.00;97486.53;5061826;28;20418;-81
2022/09/28 04:25:40;;;;;;;4.15;1.67;;;;;;;7.41;100.00;97491.06;5064129;28;20032;-81
2022/09/28 04:30:51;;;;;;;3.42;1.63;;;;;;;7.41;100.00;97475.41;5062847;28;20368;-81
2022/09/28 04:33:19;;;;;;;1.95;1.30;;;;;;;7.46;100.00;97493.84;5060072;28;20090;-81
2022/09/28 04:35:45;;;;;;;2.20;1.85;;;;;;;7.33;100.00;97491.34;5062954;28;20024;-81
2022/09/28 04:38:10;;;;;;;4.47;1.70;;;;;;;7.48;100.00;97499.66;5060320;28;20082;-81
2022/09/28 04:40:36;;;;;;;4.03;1.70;;;;;;;7.33;100.00;97484.28;5060545;28;20024;-82
2022/09/28 04:43:02;;;;;;;1.70;1.38;;;;;;;7.40;100.00;97476.41;5063865;28;20028;-82
2022/09/28 04:45:27;;;;;;;2.42;1.60;;;;;;;7.44;100.00;97495.84;5060537;28;20083;-81
2022/09/28 04:47:53;;;;;;;3.28;1.50;;;;;;;7.39;100.00;97508.75;5060492;28;20021;-81
2022/09/28 04:50:20;;;;;;;1.92;1.30;;;;;;;7.22;100.00;97498.81;5060055;28;20479;-81
2022/09/28 04:52:46;;;;;;;3.13;1.90;;;;;;;7.40;100.00;97507.75;5062307;28;20044;-81
2022/09/28 04:55:12;;;;;;;2.10;1.58;;;;;;;7.38;100.00;97501.94;5058892;28;20032;-80
2022/09/28 04:57:39;;;;;;;3.90;1.90;;;;;;;7.15;100.00;97490.25;5060814;28;20037;-81
2022/09/28 05:00:05;;;;;;;2.55;2.15;;;;;;;7.31;100.00;97507.19;5046555;28;20128;-80
2022/09/28 05:02:32;;;;;;;4.22;1.50;;;;;;;7.33;100.00;97499.94;5057573;28;20036;-80
2022/09/28 05:04:58;;;;;;;3.70;1.90;;;;;;;7.37;100.00;97484.69;5064995;28;20024;-81
2022/09/28 05:07:25;;;;;;;5.28;1.63;;;;;;;7.32;100.00;97468.84;5062602;28;20099;-82
2022/09/28 05:09:50;;;;;;;8.40;1.98;;;;;;;7.26;100.00;97481.72;5065248;28;20511;-82
2022/09/28 05:12:16;;;;;;;4.95;1.52;;;;;;;7.12;100.00;97483.63;5066372;28;20024;-82
2022/09/28 05:14:42;;;;;;;4.82;1.40;;;;;;;7.52;100.00;97493.00;5064009;28;20434;-80
2022/09/28 05:17:09;;;;;;;3.50;1.60;;;;;;;7.41;100.00;97485.84;5063634;28;20081;-81
2022/09/28 05:19:35;;;;;;;4.78;1.80;;;;;;;7.39;100.00;97488.69;5062626;28;20115;-79
2022/09/28 05:22:06;;;;;;;2.40;1.52;;;;;;;7.36;100.00;97483.88;5063594;28;20123;-81
2022/09/28 05:24:31;;;;;;;3.90;1.40;;;;;;;7.35;100.00;97482.25;5063666;28;20125;-82
2022/09/28 05:26:57;;;;;;;7.93;1.63;;;;;;;7.50;100.00;97489.00;5065193;28;20559;-81
2022/09/28 05:29:22;;;;;;;6.35;1.67;;;;;;;7.36;100.00;97475.25;5062586;28;20031;-79
2022/09/28 05:31:48;;;;;;;6.00;1.85;;;;;;;7.55;100.00;97478.72;5068150;28;20028;-79
2022/09/28 05:34:14;;;;;;;3.67;2.25;;;;;;;7.53;100.00;97478.94;5063667;28;20032;-79
2022/09/28 05:36:41;;;;;;;3.70;1.50;;;;;;;7.56;100.00;97485.53;5043165;28;20048;-78
2022/09/28 05:39:08;;;;;;;2.67;1.40;;;;;;;7.61;100.00;97490.94;5063697;28;20101;-81
2022/09/28 05:41:34;;;;;;;3.13;1.83;;;;;;;7.53;100.00;97473.72;5062433;28;20064;-79
2022/09/28 05:44:00;;;;;;;4.45;1.60;;;;;;;7.45;100.00;97475.78;5061587;28;20052;-79
2022/09/28 05:46:25;;;;;;;2.80;1.63;;;;;;;7.56;100.00;97488.13;5064960;28;20031;-79
2022/09/28 05:48:54;;;;;;;4.70;2.25;;;;;;;7.60;100.00;97486.72;5065573;28;20027;-79
2022/09/28 05:51:20;;;;;;;9.93;1.58;;;;;;;7.49;100.00;97496.03;5063137;28;20028;-81
2022/09/28 05:53:45;;;;;;;1.40;1.30;;;;;;;7.49;100.00;97490.81;5067653;28;20032;-80
2022/09/28 05:56:11;;;;;;;5.38;1.60;;;;;;;7.38;100.00;97486.28;5065825;28;20035;-79
2022/09/28 05:58:37;;;;;;;2.75;1.70;;;;;;;7.47;100.00;97479.78;5064627;28;20024;-81
2022/09/28 06:01:02;;;;;;;3.35;1.70;;;;;;;7.68;100.00;97485.66;5065687;28;20025;-79
2022/09/28 06:03:28;;;;;;;4.07;1.73;;;;;;;7.67;100.00;97490.06;5064530;28;20154;-80
2022/09/28 06:05:54;;;;;;;1.77;1.35;;;;;;;7.69;100.00;97503.72;5063388;28;20025;-80
2022/09/28 06:08:20;;;;;;;6.35;1.73;;;;;;;7.67;100.00;97484.06;5063342;28;20032;-81
2022/09/28 06:10:46;;;;;;;3.17;1.60;;;;;;;7.93;100.00;97503.13;5066215;28;20024;-79
2022/09/28 06:13:11;;;;;;;3.58;1.88;;;;;;;8.00;100.00;97504.66;5066325;28;20081;-79
2022/09/28 06:15:38;;;;;;;2.92;1.73;;;;;;;8.09;100.00;97502.56;5060343;28;20487;-79
2022/09/28 06:18:06;;;;;;;2.30;1.50;;;;;;;8.12;100.00;97504.75;5059431;28;20113;-79
2022/09/28 06:20:35;;;;;;;2.45;1.45;;;;;;;8.06;100.00;97502.19;5063090;28;20036;-81
2022/09/28 06:23:01;;;;;;;2.90;1.40;;;;;;;8.20;100.00;97505.47;5064288;28;20391;-80
2022/09/28 06:25:26;;;;;;;1.83;1.38;;;;;;;8.17;100.00;97496.25;5067185;28;20063;-81
2022/09/28 06:27:56;;;;;;;4.20;1.55;;;;;;;8.43;100.00;97508.22;5063651;28;20029;-79
2022/09/28 06:30:25;;;;;;;7.13;1.40;;;;;;;8.28;100.00;97505.97;5062908;28;20473;-81
2022/09/28 06:32:55;;;;;;;3.45;1.60;;;;;;;8.41;100.00;97510.25;5059437;28;20107;-78
2022/09/28 06:35:24;;;;;;;3.58;1.40;;;;;;;8.40;100.00;97497.41;5062977;28;20033;-77
2022/09/28 06:37:50;;;;;;;4.22;1.48;;;;;;;8.51;100.00;97522.84;5059865;28;20036;-78
2022/09/28 06:40:16;;;;;;;2.47;1.88;;;;;;;8.60;100.00;97520.75;5066257;28;20028;-79
2022/09/28 06:42:43;;;;;;;4.93;1.40;;;;;;;8.72;100.00;97526.03;5060309;28;20028;-78
2022/09/28 06:45:09;;;;;;;6.35;1.40;;;;;;;8.77;100.00;97526.19;5060776;28;20024;-78
2022/09/28 06:47:36;;;;;;;4.55;1.73;;;;;;;8.86;100.00;97521.47;5060970;28;20108;-78
2022/09/28 06:50:05;;;;;;;4.45;1.60;;;;;;;8.92;100.00;97528.41;5060156;28;20078;-78
2022/09/28 06:52:30;;;;;;;3.45;1.40;;;;;;;8.99;100.00;97516.03;5065359;28;20364;-79
2022/09/28 06:54:56;;;;;;;3.35;1.73;;;;;;;9.18;100.00;97533.53;5059754;28;20038;-78
2022/09/28 06:57:22;;;;;;;6.65;1.85;;;;;;;9.09;100.00;97533.03;5068309;28;20103;-77
2022/09/28 06:59:48;;;;;;;2.00;1.40;;;;;;;8.95;100.00;97538.44;5063070;28;20127;-79
2022/09/28 07:02:13;;;;;;;6.32;1.73;;;;;;;8.95;100.00;97527.97;5061042;28;20078;-80
2022/09/28 07:04:42;;;;;;;8.60;1.65;;;;;;;9.18;100.00;97550.03;5066207;28;20032;-80
2022/09/28 07:07:09;;;;;;;5.40;1.42;;;;;;;9.31;100.00;97543.00;5064725;28;20562;-79
2022/09/28 07:09:35;;;;;;;3.10;1.45;;;;;;;9.32;100.00;97544.59;5063323;28;20478;-80
2022/09/28 07:12:03;;;;;;;4.72;1.90;;;;;;;9.31;100.00;97543.00;5066197;28;20028;-79
2022/09/28 07:14:29;;;;;;;2.58;1.10;;;;;;;9.28;100.00;97547.69;5060112;28;20037;-79
2022/09/28 07:16:54;;;;;;;2.60;1.58;;;;;;;9.40;100.00;97547.72;5062594;28;20036;-78
2022/09/28 07:19:20;;;;;;;5.88;1.80;;;;;;;9.51;100.00;97548.75;5066487;28;20470;-79
2022/09/28 07:21:46;;;;;;;2.72;1.70;;;;;;;9.45;100.00;97556.72;5059607;28;20571;-79
2022/09/28 07:24:13;;;;;;;4.90;1.33;;;;;;;9.54;100.00;97550.16;5061546;28;20435;-79
2022/09/28 07:26:44;;;;;;;3.78;1.50;;;;;;;9.53;100.00;97540.66;5060182;28;20033;-78
2022/09/28 07:29:10;;;;;;;1.80;1.25;;;;;;;9.54;100.00;97558.78;5063913;28;20041;-79
2022/09/28 07:31:36;;;;;;;2.92;1.50;;;;;;;9.38;100.00;97543.72;5060121;28;20064;-81
2022/09/28 07:34:02;;;;;;;2.50;1.50;;;;;;;9.22;100.00;97551.16;5060530;28;20020;-79
2022/09/28 07:36:29;;;;;;;3.42;1.40;;;;;;;9.13;100.00;97531.56;5057949;28;20044;-78
2022/09/28 07:38:54;;;;;;;8.10;1.50;;;;;;;9.29;100.00;97551.91;5062434;28;20032;-78
2022/09/28 07:41:31;;;;;;;4.28;1.60;;;;;;;9.16;100.00;97546.81;5055957;28;20039;-78
2022/09/28 07:44:06;;;;;;;5.55;1.80;;;;;;;9.14;100.00;97561.97;5067372;28;21246;-78
2022/09/28 07:46:35;;;;;;;6.82;1.70;;;;;;;9.12;100.00;97566.63;5059510;28;20498;-78
2022/09/28 07:49:04;;;;;;;8.68;1.77;;;;;;;8.92;100.00;97557.19;5063019;28;20033;-78
2022/09/28 07:51:30;;;;;;;2.85;1.33;;;;;;;9.02;100.00;97567.16;5057638;28;20048;-78
2022/09/28 07:53:55;;;;;;;4.20;2.50;;;;;;;8.93;100.00;97564.03;5059815;28;20028;-78
2022/09/28 07:56:21;;;;;;;2.25;1.42;;;;;;;8.98;100.00;97561.53;5059997;28;20028;-78
2022/09/28 07:58:48;;;;;;;4.57;1.42;;;;;;;9.10;100.00;97564.22;5060710;28;20474;-78
2022/09/28 08:01:17;;;;;;;1.52;1.42;;;;;;;9.13;100.00;97568.22;5057603;28;20028;-79
2022/09/28 08:03:47;;;;;;;2.97;1.60;;;;;;;8.97;100.00;97541.63;5060022;28;20499;-80
2022/09/28 08:06:15;;;;;;;4.32;2.10;;;;;;;8.99;100.00;97549.28;5058218;28;20509;-80
2022/09/28 08:08:44;;;;;;;2.28;1.70;;;;;;;9.07;100.00;97566.50;5060922;28;20067;-78
2022/09/28 08:11:13;;;;;;;1.67;1.52;;;;;;;9.20;100.00;97568.91;5063275;28;20033;-78
2022/09/28 08:13:39;;;;;;;6.10;1.52;;;;;;;9.26;100.00;97572.47;5060015;28;20032;-80
2022/09/28 08:16:07;;;;;;;4.40;1.40;;;;;;;9.20;100.00;97566.31;5057543;28;20478;-79
2022/09/28 08:18:35;;;;;;;3.35;1.67;;;;;;;9.31;100.00;97579.66;5062150;28;20028;-79
2022/09/28 08:23:48;;;;;;;3.35;1.63;;;;;;;9.48;100.00;97570.16;5062447;28;20033;-80
2022/09/28 08:26:15;;;;;;;1.77;1.55;;;;;;;9.65;100.00;97569.53;5060088;28;20360;-80
2022/09/28 08:28:42;;;;;;;4.18;1.50;;;;;;;9.66;100.00;97586.84;5062597;28;20441;-79
2022/09/28 08:31:08;;;;;;;4.22;1.60;;;;;;;9.65;100.00;97580.00;5060670;28;20035;-78
2022/09/28 08:33:34;;;;;;;1.98;1.35;;;;;;;9.83;100.00;97587.78;5062538;28;20024;-79
2022/09/28 08:36:01;;;;;;;2.30;1.70;;;;;;;9.95;100.00;97600.09;5061462;28;20352;-79
2022/09/28 08:38:29;;;;;;;5.40;1.60;;;;;;;10.00;100.00;97582.69;5057713;28;20036;-79
2022/09/28 08:41:08;;;;;;;4.85;2.33;;;;;;;10.18;100.00;97583.59;5058845;28;20489;-79
2022/09/28 08:43:51;;;;;;;4.72;1.48;;;;;;;10.23;100.00;97601.28;5061485;28;20414;-79
2022/09/28 08:46:19;;;;;;;;;;;;;;;10.21;100.00;97590.19;5061600;28;20043;-79
2022/09/28 08:48:54;;;;;;;1.83;1.40;;;;;;;10.42;100.00;97594.94;5062120;28;19930;-79
2022/09/28 08:51:26;;;;;;;2.55;1.67;;;;;;;10.30;100.00;97580.97;5057779;28;20032;-79
2022/09/28 08:54:15;;;;;;;4.32;1.65;;;;;;;10.49;100.00;97583.50;5062750;28;20036;-79
2022/09/28 08:56:51;;;;;;;3.67;1.50;;;;;;;10.56;100.00;97599.91;5060548;28;20036;-79
2022/09/28 08:59:24;;;;;;;3.05;1.40;;;;;;;10.68;100.00;97587.59;5058247;28;20028;-78
2022/09/28 09:01:58;;;;;;;4.13;1.80;;;;;;;10.71;100.00;97586.34;5053413;28;20499;-78
2022/09/28 09:04:24;;;;;;;3.13;1.50;;;;;;;10.56;100.00;97594.66;5060355;28;20036;-78
2022/09/28 09:07:20;;;;;;;2.33;1.48;;;;;;;10.83;100.00;97589.72;5060521;28;20040;-79
2022/09/28 09:09:52;;;;;;;1.92;1.55;;;;;;;10.99;100.00;97590.81;5059789;28;20124;-78
2022/09/28 09:12:36;;;;;;;2.33;1.75;;;;;;;11.11;100.00;97603.13;5054635;28;20037;-79
2022/09/28 09:15:23;;;;;;;3.20;1.70;;;;;;;11.21;100.00;97590.19;5056478;28;20398;-77
2022/09/28 09:18:02;;;;;;;2.85;1.73;;;;;;;11.05;100.00;97591.72;5061852;28;20029;-77
2022/09/28 09:20:55;;;;;;;2.30;1.63;;;;;;;11.20;100.00;97580.72;5057974;28;20036;-76
2022/09/28 09:23:54;;;;;;;3.75;1.48;;;;;;;10.93;100.00;97555.00;5059060;28;20151;-79
2022/09/28 09:26:34;;;;;;;2.08;1.40;;;;;;;11.21;100.00;97576.25;5060112;28;20041;-77
2022/09/28 09:29:39;;;;;;;3.70;1.63;;;;;;;11.16;100.00;97576.94;5058026;28;20028;-80
2022/09/28 09:32:40;;;;;;;3.33;1.65;;;;;;;11.15;100.00;97583.25;5057216;28;20035;-79
2022/09/28 09:35:38;;;;;;;2.95;1.50;;;;;;;11.24;100.00;97594.16;5060542;28;20029;-79
2022/09/28 09:38:22;;;;;;;5.07;1.50;;;;;;;11.09;100.00;97566.59;5037140;28;20067;-79
2022/09/28 09:41:02;;;;;;;2.60;1.60;;;;;;;11.24;100.00;97573.97;5054098;28;20036;-79
2022/09/28 09:43:48;;;;;;;1.70;1.40;;;;;;;11.21;100.00;97581.50;5060351;28;20116;-80
2022/09/28 09:46:53;;;;;;;2.30;1.50;;;;;;;11.38;100.00;97584.16;5059094;28;20033;-80
2022/09/28 09:49:27;;;;;;;2.53;1.80;;;;;;;11.47;100.00;97577.50;5060535;28;20455;-79
2022/09/28 09:52:31;;;;;;;5.10;2.38;;;;;;;11.51;100.00;97598.88;5055883;28;20435;-79
2022/09/28 09:55:31;;;;;;;2.58;1.38;;;;;;;11.41;100.00;97583.72;5056334;28;20118;-77
2022/09/28 09:58:12;;;;;;;1.60;1.50;;;;;;;11.48;100.00;97583.56;5066551;28;20157;-79
2022/09/28 10:00:41;;;;;;;2.50;1.55;;;;;;;11.70;100.00;97576.59;5067509;28;20036;-78
2022/09/28 10:03:23;;;;;;;3.15;1.85;;;;;;;11.69;100.00;97574.19;5062212;28;21081;-78
2022/09/28 10:05:59;;;;;;;4.47;1.80;;;;;;;11.84;100.00;97579.72;5056873;28;20402;-77
2022/09/28 10:08:27;;;;;;;2.17;1.83;;;;;;;11.64;100.00;97576.75;5062430;28;20171;-79
2022/09/28 10:11:07;;;;;;;5.72;1.80;;;;;;;11.78;100.00;97572.75;5063999;28;20047;-78
2022/09/28 10:13:33;;;;;;;1.83;1.73;;;;;;;11.81;100.00;97585.44;5058980;28;20040;-79
2022/09/28 10:15:59;;;;;;;4.15;1.67;;;;;;;11.75;100.00;97575.09;5059472;28;20730;-79
2022/09/28 10:18:26;;;;;;;2.30;1.75;;;;;;;11.91;100.00;97576.13;5061087;28;20410;-79
2022/09/28 10:20:52;;;;;;;2.63;1.73;;;;;;;11.93;100.00;97580.13;5061871;28;20025;-80
2022/09/28 10:23:23;;;;;;;6.68;2.10;;;;;;;11.92;100.00;97577.72;5065263;28;20073;-78
2022/09/28 10:25:53;;;;;;;1.70;1.52;;;;;;;11.96;100.00;97576.19;5060353;28;20036;-77
2022/09/28 10:28:32;;;;;;;3.22;2.00;;;;;;;12.10;100.00;97569.59;5058539;28;20470;-80
2022/09/28 10:30:58;;;;;;;2.72;1.60;;;;;;;12.15;100.00;97555.75;5064800;28;20029;-78
2022/09/28 10:33:33;;;;;;;1.60;1.50;;;;;;;12.31;100.00;97555.97;5064467;28;20024;-79
2022/09/28 10:36:01;;;;;;;2.17;1.67;;;;;;;12.38;100.00;97560.00;5062620;28;20028;-79
2022/09/28 10:38:29;;;;;;;2.63;2.20;;;;;;;12.46;100.00;97574.56;5063019;28;20470;-78
2022/09/28 10:41:00;;;;;;;3.35;1.65;;;;;;;12.41;100.00;97562.16;5061537;28;20497;-79
2022/09/28 10:43:32;;;;;;;3.35;1.90;;;;;;;12.27;100.00;97568.78;5059283;28;20543;-80
2022/09/28 10:46:14;;;;;;;3.17;1.75;;;;;;;12.42;100.00;97566.38;5063061;28;20041;-80
2022/09/28 10:48:52;;;;;;;2.03;1.75;;;;;;;12.64;100.00;97573.50;5043076;28;20082;-79
2022/09/28 10:51:18;;;;;;;2.05;1.85;;;;;;;12.76;100.00;97562.84;5064573;28;20041;-79
2022/09/28 10:54:00;;;;;;;3.08;1.70;;;;;;;12.97;100.00;97556.00;5063246;28;20431;-79
2022/09/28 10:56:35;;;;;;;3.03;1.80;;;;;;;13.12;100.00;97557.97;5058819;28;20028;-80
2022/09/28 10:59:21;;;;;;;1.92;1.60;;;;;;;13.39;100.00;97551.91;5064533;28;20047;-80
2022/09/28 11:02:02;;;;;;;6.25;1.83;;;;;;;13.28;100.00;97551.03;5064218;28;20061;-80
2022/09/28 11:04:35;;;;;;;1.60;1.50;;;;;;;12.81;100.00;97554.22;5063738;28;20033;-80
2022/09/28 11:07:03;;;;;;;1.70;1.60;;;;;;;12.94;100.00;97545.94;5060898;28;20048;-80
2022/09/28 11:09:41;;;;;;;2.92;1.60;;;;;;;13.28;100.00;97551.03;5057989;28;20028;-79
2022/09/28 11:12:14;;;;;;;2.45;1.63;;;;;;;13.31;100.00;97527.84;5059259;28;20029;-79
2022/09/28 11:14:42;;;;;;;1.92;1.73;;;;;;;13.80;100.00;97545.44;5062212;28;20487;-79
2022/09/28 11:17:25;;;;;;;1.77;1.50;;;;;;;14.44;100.00;97551.63;5061537;28;20116;-81
2022/09/28 11:19:52;;;;;;;1.67;1.58;;;;;;;14.27;100.00;97565.81;5064481;28;20028;-80
2022/09/28 11:22:25;;;;;;;1.83;1.60;;;;;;;14.13;100.00;97556.75;5056947;28;20040;-80
2022/09/28 11:24:52;;;;;;;1.47;1.37;;;;;;;14.11;100.00;97549.06;5060118;28;20458;-81
2022/09/28 11:27:21;;;;;;;3.30;1.40;;;;;;;14.27;100.00;97562.38;5059274;28;20041;-81
2022/09/28 11:29:57;;;;;;;1.83;1.73;;;;;;;14.26;100.00;97561.59;5059702;28;20024;-81
2022/09/28 11:32:28;;;;;;;2.22;1.67;;;;;;;14.43;100.00;97553.47;5058657;28;20048;-81
2022/09/28 11:34:58;;;;;;;1.75;1.60;;;;;;;14.42;100.00;97556.38;5059133;28;20474;-81
2022/09/28 11:37:53;;;;;;;6.47;1.90;;;;;;;14.65;100.00;97557.03;5062356;28;20056;-81
2022/09/28 11:40:32;;;;;;;4.75;2.13;;;;;;;14.67;100.00;97555.69;5058424;28;20055;-81
2022/09/28 11:43:17;;;;;;;2.15;1.80;;;;;;;14.53;100.00;97546.66;5063975;28;20114;-81
2022/09/28 11:46:15;;;;;;;1.88;1.70;;;;;;;14.42;100.00;97554.53;5062994;28;20513;-81
2022/09/28 11:48:50;;;;;;;2.13;2.00;;;;;;;14.43;100.00;97561.41;5060667;28;20035;-80
2022/09/28 11:51:23;;;;;;;2.72;1.85;;;;;;;14.51;100.00;97551.41;5059449;28;20033;-81
2022/09/28 11:53:58;;;;;;;5.03;1.90;;;;;;;14.37;100.00;97529.94;5063221;28;20025;-80
2022/09/28 11:56:42;;;;;;;2.53;1.75;;;;;;;14.49;100.00;97551.66;5042867;28;20037;-81
2022/09/28 11:59:22;;;;;;;2.05;1.83;;;;;;;14.51;100.00;97554.03;5066468;28;20388;-81